sensor_id;sensor_type;location;lat;lon;timestamp;P1;durP1;ratioP1;P2;durP2;ratioP2
56824;SDS011;42705;50.326;18.772;2023-09-12T00:01:30;27.20;;;19.70;;
56824;SDS011;42705;50.326;18.772;2023-09-12T00:06:54;25.20;;;17.90;;
56824;SDS011;42705;50.326;18.772;2023-09-12T00:12:16;27.00;;;20.20;;
56824;SDS011;42705;50.326;18.772;2023-09-12T00:17:38;25.10;;;18.90;;
56824;SDS011;42705;50.326;18.772;2023-09-12T00:23:00;24.50;;;19.80;;
56824;SDS011;42705;50.326;18.772;2023-09-12T00:28:22;24.00;;;18.00;;
56824;SDS011;42705;50.326;18.772;2023-09-12T00:33:43;26.10;;;18.80;;
56824;SDS011;42705;50.326;18.772;2023-09-12T00:39:05;25.70;;;19.00;;
56824;SDS011;42705;50.326;18.772;2023-09-12T00:44:27;24.20;;;18.70;;
56824;SDS011;42705;50.326;18.772;2023-09-12T00:49:49;26.50;;;19.40;;
56824;SDS011;42705;50.326;18.772;2023-09-12T00:55:12;25.10;;;18.20;;
56824;SDS011;42705;50.326;18.772;2023-09-12T01:00:35;26.70;;;20.20;;
56824;SDS011;42705;50.326;18.772;2023-09-12T01:05:57;29.60;;;22.10;;
56824;SDS011;42705;50.326;18.772;2023-09-12T01:11:21;26.70;;;21.60;;
56824;SDS011;42705;50.326;18.772;2023-09-12T01:16:44;26.40;;;21.00;;
56824;SDS011;42705;50.326;18.772;2023-09-12T01:22:13;25.80;;;18.10;;
56824;SDS011;42705;50.326;18.772;2023-09-12T01:27:37;30.50;;;21.00;;
56824;SDS011;42705;50.326;18.772;2023-09-12T01:33:04;29.80;;;23.30;;
56824;SDS011;42705;50.326;18.772;2023-09-12T01:38:26;36.60;;;28.10;;
56824;SDS011;42705;50.326;18.772;2023-09-12T01:43:49;33.80;;;23.80;;
56824;SDS011;42705;50.326;18.772;2023-09-12T01:49:12;30.80;;;23.70;;
56824;SDS011;42705;50.326;18.772;2023-09-12T01:54:36;30.00;;;23.30;;
56824;SDS011;42705;50.326;18.772;2023-09-12T01:59:59;30.80;;;22.90;;
56824;SDS011;42705;50.326;18.772;2023-09-12T02:05:22;27.80;;;21.00;;
56824;SDS011;42705;50.326;18.772;2023-09-12T02:10:44;24.00;;;19.80;;
56824;SDS011;42705;50.326;18.772;2023-09-12T02:16:06;29.10;;;20.60;;
56824;SDS011;42705;50.326;18.772;2023-09-12T02:21:29;31.60;;;22.50;;
56824;SDS011;42705;50.326;18.772;2023-09-12T02:32:13;30.40;;;24.50;;
56824;SDS011;42705;50.326;18.772;2023-09-12T02:37:35;27.30;;;20.80;;
56824;SDS011;42705;50.326;18.772;2023-09-12T02:42:58;34.20;;;22.40;;
56824;SDS011;42705;50.326;18.772;2023-09-12T02:48:21;32.70;;;23.80;;
56824;SDS011;42705;50.326;18.772;2023-09-12T02:53:43;30.80;;;23.80;;
56824;SDS011;42705;50.326;18.772;2023-09-12T02:59:05;28.20;;;22.40;;
56824;SDS011;42705;50.326;18.772;2023-09-12T03:04:29;31.70;;;23.40;;
56824;SDS011;42705;50.326;18.772;2023-09-12T03:09:51;28.20;;;23.00;;
56824;SDS011;42705;50.326;18.772;2023-09-12T03:15:13;33.10;;;23.90;;
56824;SDS011;42705;50.326;18.772;2023-09-12T03:20:37;29.90;;;20.90;;
56824;SDS011;42705;50.326;18.772;2023-09-12T03:26:04;30.80;;;22.80;;
56824;SDS011;42705;50.326;18.772;2023-09-12T03:31:27;32.20;;;23.60;;
56824;SDS011;42705;50.326;18.772;2023-09-12T03:36:50;32.50;;;24.30;;
56824;SDS011;42705;50.326;18.772;2023-09-12T03:42:12;27.80;;;21.80;;
56824;SDS011;42705;50.326;18.772;2023-09-12T03:47:34;30.20;;;23.20;;
56824;SDS011;42705;50.326;18.772;2023-09-12T03:52:56;30.50;;;23.20;;
56824;SDS011;42705;50.326;18.772;2023-09-12T03:58:18;30.10;;;23.60;;
56824;SDS011;42705;50.326;18.772;2023-09-12T04:03:40;30.10;;;22.90;;
56824;SDS011;42705;50.326;18.772;2023-09-12T04:09:02;28.10;;;21.00;;
56824;SDS011;42705;50.326;18.772;2023-09-12T04:14:25;30.50;;;23.00;;
56824;SDS011;42705;50.326;18.772;2023-09-12T04:19:46;32.40;;;24.30;;
56824;SDS011;42705;50.326;18.772;2023-09-12T04:25:09;33.40;;;24.80;;
56824;SDS011;42705;50.326;18.772;2023-09-12T04:30:31;34.30;;;25.40;;
56824;SDS011;42705;50.326;18.772;2023-09-12T04:35:57;34.80;;;26.50;;
56824;SDS011;42705;50.326;18.772;2023-09-12T04:41:20;38.60;;;28.60;;
56824;SDS011;42705;50.326;18.772;2023-09-12T04:46:42;35.50;;;27.20;;
56824;SDS011;42705;50.326;18.772;2023-09-12T04:52:05;34.30;;;24.50;;
56824;SDS011;42705;50.326;18.772;2023-09-12T04:57:27;35.50;;;24.70;;
56824;SDS011;42705;50.326;18.772;2023-09-12T05:02:52;33.50;;;25.20;;
56824;SDS011;42705;50.326;18.772;2023-09-12T05:08:14;35.00;;;25.40;;
56824;SDS011;42705;50.326;18.772;2023-09-12T05:13:36;28.50;;;22.90;;
56824;SDS011;42705;50.326;18.772;2023-09-12T05:18:59;33.60;;;25.30;;
56824;SDS011;42705;50.326;18.772;2023-09-12T05:24:20;37.30;;;26.00;;
56824;SDS011;42705;50.326;18.772;2023-09-12T05:29:42;49.60;;;29.10;;
56824;SDS011;42705;50.326;18.772;2023-09-12T05:35:05;40.80;;;28.00;;
56824;SDS011;42705;50.326;18.772;2023-09-12T05:40:27;39.00;;;26.80;;
56824;SDS011;42705;50.326;18.772;2023-09-12T05:51:11;36.50;;;24.70;;
56824;SDS011;42705;50.326;18.772;2023-09-12T05:56:34;39.40;;;27.10;;
56824;SDS011;42705;50.326;18.772;2023-09-12T06:01:56;32.50;;;24.50;;
56824;SDS011;42705;50.326;18.772;2023-09-12T06:07:19;33.90;;;22.30;;
56824;SDS011;42705;50.326;18.772;2023-09-12T06:12:41;30.70;;;22.70;;
56824;SDS011;42705;50.326;18.772;2023-09-12T06:18:04;30.50;;;20.80;;
56824;SDS011;42705;50.326;18.772;2023-09-12T06:23:26;34.70;;;20.40;;
56824;SDS011;42705;50.326;18.772;2023-09-12T06:28:47;25.40;;;19.00;;
56824;SDS011;42705;50.326;18.772;2023-09-12T06:34:09;23.70;;;19.10;;
56824;SDS011;42705;50.326;18.772;2023-09-12T06:39:31;29.90;;;21.50;;
56824;SDS011;42705;50.326;18.772;2023-09-12T06:44:53;22.30;;;16.10;;
56824;SDS011;42705;50.326;18.772;2023-09-12T06:50:15;22.30;;;14.90;;
56824;SDS011;42705;50.326;18.772;2023-09-12T06:55:37;20.60;;;15.00;;
56824;SDS011;42705;50.326;18.772;2023-09-12T07:01:06;22.10;;;15.20;;
56824;SDS011;42705;50.326;18.772;2023-09-12T07:06:28;17.10;;;14.10;;
56824;SDS011;42705;50.326;18.772;2023-09-12T07:11:50;22.80;;;14.60;;
56824;SDS011;42705;50.326;18.772;2023-09-12T07:17:12;19.30;;;12.40;;
56824;SDS011;42705;50.326;18.772;2023-09-12T07:22:34;18.40;;;14.10;;
56824;SDS011;42705;50.326;18.772;2023-09-12T07:27:56;15.90;;;12.70;;
56824;SDS011;42705;50.326;18.772;2023-09-12T07:33:17;18.20;;;12.20;;
56824;SDS011;42705;50.326;18.772;2023-09-12T07:44:03;17.30;;;11.30;;
56824;SDS011;42705;50.326;18.772;2023-09-12T07:49:26;18.10;;;10.40;;
56824;SDS011;42705;50.326;18.772;2023-09-12T07:54:49;15.50;;;10.30;;
56824;SDS011;42705;50.326;18.772;2023-09-12T08:00:14;12.90;;;9.10;;
56824;SDS011;42705;50.326;18.772;2023-09-12T08:05:36;11.90;;;9.00;;
56824;SDS011;42705;50.326;18.772;2023-09-12T08:10:58;11.10;;;9.00;;
56824;SDS011;42705;50.326;18.772;2023-09-12T08:16:20;13.50;;;9.20;;
56824;SDS011;42705;50.326;18.772;2023-09-12T08:21:42;20.60;;;10.40;;
56824;SDS011;42705;50.326;18.772;2023-09-12T08:27:04;13.30;;;10.90;;
56824;SDS011;42705;50.326;18.772;2023-09-12T08:32:27;9.00;;;7.20;;
56824;SDS011;42705;50.326;18.772;2023-09-12T08:37:49;10.70;;;8.90;;
56824;SDS011;42705;50.326;18.772;2023-09-12T08:43:11;12.80;;;9.20;;
56824;SDS011;42705;50.326;18.772;2023-09-12T08:53:55;19.10;;;10.00;;
56824;SDS011;42705;50.326;18.772;2023-09-12T08:59:17;11.40;;;8.80;;
56824;SDS011;42705;50.326;18.772;2023-09-12T09:04:39;12.00;;;8.50;;
56824;SDS011;42705;50.326;18.772;2023-09-12T09:10:04;12.60;;;9.60;;
56824;SDS011;42705;50.326;18.772;2023-09-12T09:15:28;12.50;;;9.80;;
56824;SDS011;42705;50.326;18.772;2023-09-12T09:20:51;9.60;;;8.60;;
56824;SDS011;42705;50.326;18.772;2023-09-12T09:26:13;11.20;;;9.10;;
56824;SDS011;42705;50.326;18.772;2023-09-12T09:31:35;11.70;;;9.80;;
56824;SDS011;42705;50.326;18.772;2023-09-12T09:37:02;12.90;;;9.70;;
56824;SDS011;42705;50.326;18.772;2023-09-12T09:42:28;13.60;;;10.50;;
56824;SDS011;42705;50.326;18.772;2023-09-12T09:47:50;13.70;;;9.10;;
56824;SDS011;42705;50.326;18.772;2023-09-12T09:53:12;67.50;;;60.00;;
56824;SDS011;42705;50.326;18.772;2023-09-12T09:58:34;21.60;;;10.60;;
56824;SDS011;42705;50.326;18.772;2023-09-12T10:09:20;12.20;;;9.10;;
56824;SDS011;42705;50.326;18.772;2023-09-12T10:14:44;12.40;;;8.60;;
56824;SDS011;42705;50.326;18.772;2023-09-12T10:20:08;12.80;;;8.40;;
56824;SDS011;42705;50.326;18.772;2023-09-12T10:25:37;13.90;;;9.20;;
56824;SDS011;42705;50.326;18.772;2023-09-12T10:31:00;15.50;;;8.10;;
56824;SDS011;42705;50.326;18.772;2023-09-12T10:36:23;12.20;;;7.90;;
56824;SDS011;42705;50.326;18.772;2023-09-12T10:41:48;7.40;;;6.70;;
56824;SDS011;42705;50.326;18.772;2023-09-12T10:47:13;8.40;;;7.00;;
56824;SDS011;42705;50.326;18.772;2023-09-12T10:52:36;11.20;;;7.30;;
56824;SDS011;42705;50.326;18.772;2023-09-12T10:58:02;9.20;;;7.10;;
56824;SDS011;42705;50.326;18.772;2023-09-12T11:15:03;12.10;;;8.40;;
56824;SDS011;42705;50.326;18.772;2023-09-12T11:20:48;10.20;;;7.70;;
56824;SDS011;42705;50.326;18.772;2023-09-12T11:26:11;8.60;;;7.70;;
56824;SDS011;42705;50.326;18.772;2023-09-12T11:31:35;9.50;;;7.60;;
56824;SDS011;42705;50.326;18.772;2023-09-12T11:37:00;9.30;;;7.50;;
56824;SDS011;42705;50.326;18.772;2023-09-12T11:42:22;8.80;;;8.10;;
56824;SDS011;42705;50.326;18.772;2023-09-12T11:47:46;10.70;;;7.50;;
56824;SDS011;42705;50.326;18.772;2023-09-12T11:53:09;8.30;;;7.50;;
56824;SDS011;42705;50.326;18.772;2023-09-12T11:58:32;8.00;;;7.10;;
56824;SDS011;42705;50.326;18.772;2023-09-12T12:03:55;8.50;;;6.80;;
56824;SDS011;42705;50.326;18.772;2023-09-12T12:09:18;7.50;;;6.70;;
56824;SDS011;42705;50.326;18.772;2023-09-12T12:14:41;8.60;;;6.60;;
56824;SDS011;42705;50.326;18.772;2023-09-12T12:20:03;7.30;;;6.60;;
56824;SDS011;42705;50.326;18.772;2023-09-12T12:25:33;7.50;;;6.50;;
56824;SDS011;42705;50.326;18.772;2023-09-12T12:30:55;8.70;;;6.60;;
56824;SDS011;42705;50.326;18.772;2023-09-12T12:36:17;7.60;;;6.90;;
56824;SDS011;42705;50.326;18.772;2023-09-12T12:41:40;6.90;;;6.20;;
56824;SDS011;42705;50.326;18.772;2023-09-12T12:47:03;11.50;;;10.10;;
56824;SDS011;42705;50.326;18.772;2023-09-12T12:52:27;9.50;;;6.00;;
56824;SDS011;42705;50.326;18.772;2023-09-12T12:57:49;7.00;;;5.20;;
56824;SDS011;42705;50.326;18.772;2023-09-12T13:03:11;5.70;;;5.00;;
56824;SDS011;42705;50.326;18.772;2023-09-12T13:08:33;5.80;;;5.30;;
56824;SDS011;42705;50.326;18.772;2023-09-12T13:13:58;5.60;;;5.10;;
56824;SDS011;42705;50.326;18.772;2023-09-12T13:19:19;5.90;;;5.40;;
56824;SDS011;42705;50.326;18.772;2023-09-12T13:24:41;7.50;;;4.00;;
56824;SDS011;42705;50.326;18.772;2023-09-12T13:30:04;3.90;;;3.30;;
56824;SDS011;42705;50.326;18.772;2023-09-12T13:35:27;8.60;;;4.20;;
56824;SDS011;42705;50.326;18.772;2023-09-12T13:40:49;4.50;;;3.90;;
56824;SDS011;42705;50.326;18.772;2023-09-12T13:46:10;4.00;;;3.60;;
56824;SDS011;42705;50.326;18.772;2023-09-12T13:51:34;4.10;;;3.80;;
56824;SDS011;42705;50.326;18.772;2023-09-12T13:56:57;4.00;;;3.60;;
56824;SDS011;42705;50.326;18.772;2023-09-12T14:02:19;4.30;;;3.70;;
56824;SDS011;42705;50.326;18.772;2023-09-12T14:07:41;4.70;;;3.90;;
56824;SDS011;42705;50.326;18.772;2023-09-12T14:13:04;3.90;;;3.60;;
56824;SDS011;42705;50.326;18.772;2023-09-12T14:18:26;4.70;;;3.70;;
56824;SDS011;42705;50.326;18.772;2023-09-12T14:23:48;4.00;;;3.60;;
56824;SDS011;42705;50.326;18.772;2023-09-12T14:29:11;3.80;;;3.50;;
56824;SDS011;42705;50.326;18.772;2023-09-12T14:34:34;5.50;;;4.00;;
56824;SDS011;42705;50.326;18.772;2023-09-12T14:39:55;4.70;;;4.30;;
56824;SDS011;42705;50.326;18.772;2023-09-12T14:45:18;4.00;;;3.70;;
56824;SDS011;42705;50.326;18.772;2023-09-12T14:50:39;6.40;;;4.40;;
56824;SDS011;42705;50.326;18.772;2023-09-12T14:56:01;5.50;;;4.30;;
56824;SDS011;42705;50.326;18.772;2023-09-12T15:01:23;7.70;;;5.00;;
56824;SDS011;42705;50.326;18.772;2023-09-12T15:06:48;6.20;;;5.10;;
56824;SDS011;42705;50.326;18.772;2023-09-12T15:12:10;8.70;;;7.60;;
56824;SDS011;42705;50.326;18.772;2023-09-12T15:17:32;8.70;;;5.60;;
56824;SDS011;42705;50.326;18.772;2023-09-12T15:22:54;6.40;;;5.70;;
56824;SDS011;42705;50.326;18.772;2023-09-12T15:28:16;8.00;;;6.40;;
56824;SDS011;42705;50.326;18.772;2023-09-12T15:33:38;7.00;;;5.80;;
56824;SDS011;42705;50.326;18.772;2023-09-12T15:39:00;7.00;;;6.30;;
56824;SDS011;42705;50.326;18.772;2023-09-12T15:44:22;6.80;;;6.10;;
56824;SDS011;42705;50.326;18.772;2023-09-12T15:49:44;7.90;;;6.60;;
56824;SDS011;42705;50.326;18.772;2023-09-12T15:55:07;9.00;;;6.50;;
56824;SDS011;42705;50.326;18.772;2023-09-12T16:00:29;8.80;;;7.10;;
56824;SDS011;42705;50.326;18.772;2023-09-12T16:05:51;9.40;;;6.50;;
56824;SDS011;42705;50.326;18.772;2023-09-12T16:11:13;9.10;;;6.60;;
56824;SDS011;42705;50.326;18.772;2023-09-12T16:16:37;9.90;;;6.50;;
56824;SDS011;42705;50.326;18.772;2023-09-12T16:21:59;11.20;;;7.60;;
56824;SDS011;42705;50.326;18.772;2023-09-12T16:27:21;13.40;;;8.70;;
56824;SDS011;42705;50.326;18.772;2023-09-12T16:32:44;14.50;;;9.10;;
56824;SDS011;42705;50.326;18.772;2023-09-12T16:38:05;13.70;;;9.90;;
56824;SDS011;42705;50.326;18.772;2023-09-12T16:43:27;20.40;;;11.60;;
56824;SDS011;42705;50.326;18.772;2023-09-12T16:48:49;16.30;;;10.20;;
56824;SDS011;42705;50.326;18.772;2023-09-12T16:54:11;15.70;;;11.60;;
56824;SDS011;42705;50.326;18.772;2023-09-12T16:59:33;15.60;;;10.90;;
56824;SDS011;42705;50.326;18.772;2023-09-12T17:04:55;17.70;;;10.90;;
56824;SDS011;42705;50.326;18.772;2023-09-12T17:10:17;23.10;;;14.20;;
56824;SDS011;42705;50.326;18.772;2023-09-12T17:15:39;12.70;;;10.40;;
56824;SDS011;42705;50.326;18.772;2023-09-12T17:21:01;16.90;;;10.70;;
56824;SDS011;42705;50.326;18.772;2023-09-12T17:26:24;15.80;;;10.70;;
56824;SDS011;42705;50.326;18.772;2023-09-12T17:31:46;13.00;;;9.90;;
56824;SDS011;42705;50.326;18.772;2023-09-12T17:37:08;14.50;;;10.80;;
56824;SDS011;42705;50.326;18.772;2023-09-12T17:42:30;17.10;;;12.00;;
56824;SDS011;42705;50.326;18.772;2023-09-12T17:47:52;18.10;;;12.80;;
56824;SDS011;42705;50.326;18.772;2023-09-12T17:53:15;20.60;;;13.80;;
56824;SDS011;42705;50.326;18.772;2023-09-12T17:58:40;18.90;;;14.30;;
56824;SDS011;42705;50.326;18.772;2023-09-12T18:04:03;15.90;;;13.20;;
56824;SDS011;42705;50.326;18.772;2023-09-12T18:09:25;17.10;;;13.90;;
56824;SDS011;42705;50.326;18.772;2023-09-12T18:14:47;16.90;;;13.80;;
56824;SDS011;42705;50.326;18.772;2023-09-12T18:20:10;21.80;;;15.10;;
56824;SDS011;42705;50.326;18.772;2023-09-12T18:25:32;21.50;;;15.10;;
56824;SDS011;42705;50.326;18.772;2023-09-12T18:36:16;20.70;;;15.70;;
56824;SDS011;42705;50.326;18.772;2023-09-12T18:41:38;18.20;;;14.00;;
56824;SDS011;42705;50.326;18.772;2023-09-12T18:47:00;22.90;;;15.40;;
56824;SDS011;42705;50.326;18.772;2023-09-12T18:52:23;20.90;;;14.00;;
56824;SDS011;42705;50.326;18.772;2023-09-12T18:57:46;18.70;;;14.60;;
56824;SDS011;42705;50.326;18.772;2023-09-12T19:08:31;24.60;;;14.70;;
56824;SDS011;42705;50.326;18.772;2023-09-12T19:13:53;21.70;;;16.30;;
56824;SDS011;42705;50.326;18.772;2023-09-12T19:19:17;23.70;;;16.10;;
56824;SDS011;42705;50.326;18.772;2023-09-12T19:24:39;24.60;;;17.00;;
56824;SDS011;42705;50.326;18.772;2023-09-12T19:30:08;22.70;;;16.40;;
56824;SDS011;42705;50.326;18.772;2023-09-12T19:35:37;26.70;;;17.00;;
56824;SDS011;42705;50.326;18.772;2023-09-12T19:41:01;22.70;;;16.80;;
56824;SDS011;42705;50.326;18.772;2023-09-12T19:46:24;26.00;;;16.90;;
56824;SDS011;42705;50.326;18.772;2023-09-12T19:51:48;24.10;;;17.20;;
56824;SDS011;42705;50.326;18.772;2023-09-12T19:57:12;24.20;;;17.10;;
56824;SDS011;42705;50.326;18.772;2023-09-12T20:02:34;26.90;;;17.30;;
56824;SDS011;42705;50.326;18.772;2023-09-12T20:07:56;23.90;;;17.10;;
56824;SDS011;42705;50.326;18.772;2023-09-12T20:13:18;20.20;;;16.20;;
56824;SDS011;42705;50.326;18.772;2023-09-12T20:18:40;22.10;;;15.70;;
56824;SDS011;42705;50.326;18.772;2023-09-12T20:29:25;27.70;;;16.80;;
56824;SDS011;42705;50.326;18.772;2023-09-12T20:34:47;29.80;;;20.50;;
56824;SDS011;42705;50.326;18.772;2023-09-12T20:40:09;23.70;;;17.20;;
56824;SDS011;42705;50.326;18.772;2023-09-12T20:45:31;25.60;;;16.60;;
56824;SDS011;42705;50.326;18.772;2023-09-12T20:50:53;28.80;;;17.30;;
56824;SDS011;42705;50.326;18.772;2023-09-12T20:56:16;25.40;;;17.10;;
56824;SDS011;42705;50.326;18.772;2023-09-12T21:01:37;46.20;;;33.00;;
56824;SDS011;42705;50.326;18.772;2023-09-12T21:06:59;28.30;;;19.20;;
56824;SDS011;42705;50.326;18.772;2023-09-12T21:12:21;25.40;;;19.40;;
56824;SDS011;42705;50.326;18.772;2023-09-12T21:17:46;26.60;;;17.60;;
56824;SDS011;42705;50.326;18.772;2023-09-12T21:23:07;25.50;;;18.50;;
56824;SDS011;42705;50.326;18.772;2023-09-12T21:28:30;26.70;;;17.50;;
56824;SDS011;42705;50.326;18.772;2023-09-12T21:33:51;23.30;;;16.80;;
56824;SDS011;42705;50.326;18.772;2023-09-12T21:44:36;22.90;;;15.40;;
56824;SDS011;42705;50.326;18.772;2023-09-12T21:49:58;19.90;;;16.30;;
56824;SDS011;42705;50.326;18.772;2023-09-12T21:55:21;22.00;;;16.60;;
56824;SDS011;42705;50.326;18.772;2023-09-12T22:00:43;20.50;;;16.70;;
56824;SDS011;42705;50.326;18.772;2023-09-12T22:06:07;26.10;;;17.60;;
56824;SDS011;42705;50.326;18.772;2023-09-12T22:11:29;26.20;;;18.00;;
56824;SDS011;42705;50.326;18.772;2023-09-12T22:16:51;22.00;;;18.00;;
56824;SDS011;42705;50.326;18.772;2023-09-12T22:22:13;27.70;;;19.10;;
56824;SDS011;42705;50.326;18.772;2023-09-12T22:27:35;26.30;;;18.70;;
56824;SDS011;42705;50.326;18.772;2023-09-12T22:32:57;25.90;;;19.40;;
56824;SDS011;42705;50.326;18.772;2023-09-12T22:38:19;29.40;;;19.50;;
56824;SDS011;42705;50.326;18.772;2023-09-12T22:43:41;24.00;;;17.40;;
56824;SDS011;42705;50.326;18.772;2023-09-12T22:49:03;28.50;;;18.50;;
56824;SDS011;42705;50.326;18.772;2023-09-12T22:54:25;25.60;;;19.70;;
56824;SDS011;42705;50.326;18.772;2023-09-12T23:05:08;26.00;;;19.40;;
56824;SDS011;42705;50.326;18.772;2023-09-12T23:10:30;30.60;;;22.40;;
56824;SDS011;42705;50.326;18.772;2023-09-12T23:15:53;30.20;;;21.10;;
56824;SDS011;42705;50.326;18.772;2023-09-12T23:21:16;27.20;;;21.10;;
56824;SDS011;42705;50.326;18.772;2023-09-12T23:26:37;28.20;;;19.50;;
56824;SDS011;42705;50.326;18.772;2023-09-12T23:31:59;27.20;;;20.10;;
56824;SDS011;42705;50.326;18.772;2023-09-12T23:37:24;30.50;;;23.00;;
56824;SDS011;42705;50.326;18.772;2023-09-12T23:42:46;27.70;;;21.60;;
56824;SDS011;42705;50.326;18.772;2023-09-12T23:48:08;26.60;;;21.20;;
56824;SDS011;42705;50.326;18.772;2023-09-12T23:53:30;25.30;;;20.60;;
56824;SDS011;42705;50.326;18.772;2023-09-12T23:58:52;25.30;;;21.10;;
